createdAt,value
2022-12-06T00:01:27.041Z,14.60
2022-12-06T00:03:59.737Z,15.45
2022-12-06T00:06:36.012Z,14.77
2022-12-06T00:09:07.210Z,14.87
2022-12-06T00:11:39.957Z,14.95
2022-12-06T00:14:11.632Z,14.57
2022-12-06T00:16:43.236Z,14.45
2022-12-06T00:19:17.272Z,14.45
2022-12-06T00:21:51.568Z,15.50
2022-12-06T00:24:25.008Z,15.35
2022-12-06T00:26:56.362Z,16.63
2022-12-06T00:29:27.882Z,16.00
2022-12-06T00:31:58.815Z,16.33
2022-12-06T00:34:29.953Z,14.40
2022-12-06T00:37:03.830Z,16.17
2022-12-06T00:39:35.267Z,15.43
2022-12-06T00:42:06.639Z,15.77
2022-12-06T00:44:38.015Z,14.43
2022-12-06T00:47:09.008Z,14.07
2022-12-06T00:49:39.889Z,15.48
2022-12-06T00:52:13.761Z,14.13
2022-12-06T00:54:44.672Z,14.05
2022-12-06T00:57:15.572Z,14.93
2022-12-06T00:59:46.559Z,15.68
2022-12-06T01:02:17.458Z,14.23
2022-12-06T01:04:48.389Z,15.27
2022-12-06T01:07:22.826Z,15.05
2022-12-06T01:09:54.168Z,17.10
2022-12-06T01:12:25.100Z,15.68
2022-12-06T01:14:56.374Z,16.35
2022-12-06T01:17:27.283Z,17.38
2022-12-06T01:19:58.320Z,16.58
2022-12-06T01:22:32.264Z,15.95
2022-12-06T01:25:03.428Z,15.73
2022-12-06T01:27:34.237Z,15.95
2022-12-06T01:30:05.063Z,15.95
2022-12-06T01:32:35.939Z,15.68
2022-12-06T01:35:07.823Z,16.23
2022-12-06T01:37:41.236Z,16.25
2022-12-06T01:40:15.039Z,15.82
2022-12-06T01:42:46.189Z,16.73
2022-12-06T01:45:17.252Z,16.80
2022-12-06T01:47:48.826Z,17.02
2022-12-06T01:50:26.269Z,16.38
2022-12-06T01:53:03.371Z,15.82
2022-12-06T01:55:38.205Z,15.15
2022-12-06T01:58:13.541Z,16.65
2022-12-06T02:00:44.455Z,16.83
2022-12-06T02:03:21.870Z,16.25
2022-12-06T02:05:52.805Z,16.23
2022-12-06T02:08:27.287Z,17.27
2022-12-06T02:10:58.739Z,17.25
2022-12-06T02:13:30.394Z,16.38
2022-12-06T02:16:10.197Z,15.95
2022-12-06T02:18:49.318Z,16.25
2022-12-06T02:21:30.876Z,17.45
2022-12-06T02:24:33.993Z,18.10
2022-12-06T02:27:23.751Z,19.25
2022-12-06T02:30:11.550Z,18.65
2022-12-06T02:32:55.292Z,18.05
2022-12-06T02:35:32.995Z,18.55
2022-12-06T02:38:13.044Z,18.23
2022-12-06T02:40:49.250Z,18.10
2022-12-06T02:43:23.893Z,17.02
2022-12-06T02:45:58.198Z,18.23
2022-12-06T02:48:32.160Z,18.25
2022-12-06T02:51:06.043Z,18.13
2022-12-06T02:53:41.058Z,17.08
2022-12-06T02:56:12.633Z,16.90
2022-12-06T02:58:43.746Z,17.50
2022-12-06T03:01:17.763Z,18.50
2022-12-06T03:04:11.249Z,18.73
2022-12-06T03:06:55.191Z,15.85
2022-12-06T03:09:37.060Z,17.73
2022-12-06T03:12:14.490Z,16.80
2022-12-06T03:14:51.578Z,17.05
2022-12-06T03:17:29.531Z,17.58
2022-12-06T03:20:08.702Z,17.15
2022-12-06T03:22:43.667Z,15.90
2022-12-06T03:25:16.204Z,15.77
2022-12-06T03:27:48.684Z,17.52
2022-12-06T03:30:19.872Z,16.38
2022-12-06T03:32:52.650Z,16.92
2022-12-06T03:35:30.550Z,17.10
2022-12-06T03:38:07.500Z,17.42
2022-12-06T03:40:43.000Z,16.48
2022-12-06T03:43:14.285Z,17.05
2022-12-06T03:45:50.229Z,15.85
2022-12-06T03:48:26.201Z,13.47
2022-12-06T03:51:04.831Z,17.95
2022-12-06T03:53:36.605Z,17.25
2022-12-06T03:56:07.829Z,17.63
2022-12-06T03:58:38.910Z,17.38
2022-12-06T04:01:09.774Z,18.00
2022-12-06T04:03:41.503Z,18.70
2022-12-06T04:06:15.816Z,18.48
2022-12-06T04:08:46.776Z,16.75
2022-12-06T04:11:18.354Z,17.65
2022-12-06T04:13:49.593Z,17.58
2022-12-06T04:16:32.793Z,17.00
2022-12-06T04:19:04.214Z,15.68
2022-12-06T04:21:50.104Z,15.45
2022-12-06T04:24:22.329Z,16.10
2022-12-06T04:27:13.824Z,15.98
2022-12-06T04:29:57.038Z,16.23
2022-12-06T04:32:40.366Z,17.73
2022-12-06T04:35:23.875Z,18.00
2022-12-06T04:38:12.944Z,17.42
2022-12-06T04:40:43.933Z,16.40
2022-12-06T04:43:27.005Z,16.25
2022-12-06T04:45:57.863Z,15.95
2022-12-06T04:48:28.743Z,16.48
2022-12-06T04:50:59.562Z,16.05
2022-12-06T04:53:32.981Z,15.27
2022-12-06T04:56:04.090Z,14.90
2022-12-06T04:58:35.425Z,15.45
2022-12-06T05:01:06.750Z,14.85
2022-12-06T05:03:43.748Z,14.45
2022-12-06T05:06:15.417Z,13.23
2022-12-06T05:08:49.548Z,13.73
2022-12-06T05:11:20.653Z,12.50
2022-12-06T05:13:51.995Z,12.68
2022-12-06T05:16:22.820Z,12.07
2022-12-06T05:18:54.111Z,12.82
2022-12-06T05:21:27.734Z,10.90
2022-12-06T05:24:02.250Z,11.95
2022-12-06T05:26:33.120Z,11.57
2022-12-06T05:29:04.005Z,11.80
2022-12-06T05:31:35.343Z,11.75
2022-12-06T05:34:06.225Z,12.40
2022-12-06T05:36:37.037Z,12.60
2022-12-06T05:39:10.461Z,11.90
2022-12-06T05:41:41.253Z,12.35
2022-12-06T05:44:14.399Z,12.90
2022-12-06T05:46:45.227Z,12.35
2022-12-06T05:49:16.503Z,12.75
2022-12-06T05:51:47.527Z,13.23
2022-12-06T05:54:22.023Z,14.35
2022-12-06T05:56:52.864Z,12.63
2022-12-06T05:59:23.898Z,13.60
2022-12-06T06:01:55.298Z,14.68
2022-12-06T06:04:26.555Z,15.25
2022-12-06T06:06:57.511Z,13.25
2022-12-06T06:09:31.653Z,13.55
2022-12-06T06:12:02.556Z,14.43
2022-12-06T06:14:33.417Z,12.85
2022-12-06T06:17:04.442Z,13.20
2022-12-06T06:19:35.588Z,13.35
2022-12-06T06:22:06.442Z,13.23
2022-12-06T06:24:43.175Z,13.95
2022-12-06T06:27:14.732Z,13.10
2022-12-06T06:29:46.103Z,12.13
2022-12-06T06:32:17.074Z,10.20
2022-12-06T06:34:47.845Z,11.43
2022-12-06T06:37:18.861Z,10.52
2022-12-06T06:39:52.383Z,9.50
2022-12-06T06:42:23.214Z,10.48
2022-12-06T06:44:56.205Z,10.77
2022-12-06T06:47:27.763Z,10.18
2022-12-06T06:49:59.252Z,12.00
2022-12-06T06:52:30.838Z,11.77
2022-12-06T06:55:05.108Z,11.20
2022-12-06T06:57:36.635Z,12.73
2022-12-06T07:00:09.052Z,11.70
2022-12-06T07:02:40.481Z,10.50
2022-12-06T07:05:12.087Z,11.13
2022-12-06T07:07:43.201Z,11.95
2022-12-06T07:10:18.115Z,13.40
2022-12-06T07:12:49.231Z,11.68
2022-12-06T07:15:20.254Z,11.27
2022-12-06T07:17:51.918Z,12.43
2022-12-06T07:20:23.246Z,10.85
2022-12-06T07:22:54.041Z,11.93
2022-12-06T07:25:28.122Z,13.02
2022-12-06T07:27:59.043Z,13.35
2022-12-06T07:30:31.334Z,12.73
2022-12-06T07:33:02.932Z,13.45
2022-12-06T07:36:10.163Z,13.63
2022-12-06T07:38:25.731Z,13.32
2022-12-06T07:41:25.490Z,12.68
2022-12-06T07:44:10.783Z,13.32
2022-12-06T07:46:42.107Z,12.75
2022-12-06T07:49:13.287Z,12.77
2022-12-06T07:51:44.459Z,14.38
2022-12-06T07:54:15.909Z,13.32
2022-12-06T07:56:49.805Z,13.00
2022-12-06T07:59:21.129Z,14.80
2022-12-06T08:01:52.615Z,13.95
2022-12-06T08:04:24.282Z,13.65
2022-12-06T08:06:56.583Z,13.35
2022-12-06T08:09:27.939Z,13.45
2022-12-06T08:12:01.893Z,13.48
2022-12-06T08:14:33.066Z,13.60
2022-12-06T08:17:04.110Z,13.68
2022-12-06T08:19:36.103Z,13.82
2022-12-06T08:22:07.371Z,12.07
2022-12-06T08:24:38.705Z,13.68
2022-12-06T08:27:12.700Z,14.15
2022-12-06T08:29:45.495Z,13.77
2022-12-06T08:32:16.936Z,12.85
2022-12-06T08:34:48.052Z,13.40
2022-12-06T08:37:20.237Z,12.02
2022-12-06T08:39:51.766Z,14.10
2022-12-06T08:42:25.884Z,13.40
2022-12-06T08:44:57.508Z,14.27
2022-12-06T08:47:29.207Z,13.85
2022-12-06T08:50:00.974Z,15.02
2022-12-06T08:52:32.315Z,14.20
2022-12-06T08:55:03.339Z,13.57
2022-12-06T08:57:38.836Z,12.85
2022-12-06T09:00:11.413Z,13.63
2022-12-06T09:02:43.029Z,13.02
2022-12-06T09:05:14.720Z,14.07
2022-12-06T09:07:45.894Z,13.48
2022-12-06T09:10:17.061Z,13.52
2022-12-06T09:12:51.406Z,12.43
2022-12-06T09:15:22.754Z,12.60
2022-12-06T09:17:54.955Z,11.98
2022-12-06T09:20:26.555Z,12.98
2022-12-06T09:22:57.706Z,13.63
2022-12-06T09:25:29.370Z,13.23
2022-12-06T09:28:03.058Z,14.77
2022-12-06T09:30:34.650Z,13.77
2022-12-06T09:33:05.626Z,14.63
2022-12-06T09:35:38.011Z,14.25
2022-12-06T09:38:11.474Z,15.40
2022-12-06T09:40:53.346Z,15.45
2022-12-06T09:43:44.256Z,15.55
2022-12-06T09:46:44.657Z,16.02
2022-12-06T09:49:33.706Z,14.68
2022-12-06T09:52:25.695Z,12.52
2022-12-06T09:55:12.477Z,14.40
2022-12-06T09:57:49.886Z,16.25
2022-12-06T10:00:27.359Z,15.32
2022-12-06T10:03:32.534Z,15.43
2022-12-06T10:06:05.887Z,15.77
2022-12-06T10:08:52.839Z,15.65
2022-12-06T10:11:36.817Z,15.38
2022-12-06T10:14:14.464Z,16.08
2022-12-06T10:16:57.932Z,15.05
2022-12-06T10:19:40.321Z,14.38
2022-12-06T10:22:19.090Z,15.15
2022-12-06T10:25:03.308Z,15.43
2022-12-06T10:27:41.094Z,14.45
2022-12-06T10:30:16.507Z,15.98
2022-12-06T10:33:06.777Z,15.48
2022-12-06T10:35:45.462Z,16.63
2022-12-06T10:38:27.183Z,16.02
2022-12-06T10:41:08.903Z,15.57
2022-12-06T10:43:48.114Z,16.52
2022-12-06T10:46:39.188Z,14.43
2022-12-06T10:49:22.846Z,15.27
2022-12-06T10:51:59.699Z,15.95
2022-12-06T10:54:36.703Z,16.35
2022-12-06T10:59:46.113Z,16.65
2022-12-06T11:02:29.992Z,14.23
2022-12-06T11:05:07.715Z,15.80
2022-12-06T11:07:44.798Z,17.50
2022-12-06T11:10:23.617Z,15.50
2022-12-06T11:13:02.497Z,14.10
2022-12-06T11:15:37.376Z,15.05
2022-12-06T11:18:14.709Z,15.48
2022-12-06T11:20:52.698Z,15.60
2022-12-06T11:23:29.960Z,15.00
2022-12-06T11:26:13.018Z,15.43
2022-12-06T11:28:46.632Z,13.88
2022-12-06T11:31:27.628Z,13.70
2022-12-06T11:34:01.882Z,14.13
2022-12-06T11:36:37.192Z,12.63
2022-12-06T11:39:08.799Z,13.20
2022-12-06T11:41:40.994Z,14.55
2022-12-06T11:44:20.914Z,14.23
2022-12-06T11:46:57.163Z,13.45
2022-12-06T11:49:35.168Z,14.52
2022-12-06T11:52:14.479Z,16.50
2022-12-06T11:54:50.394Z,14.80
2022-12-06T11:57:25.505Z,15.10
2022-12-06T12:00:13.198Z,14.85
2022-12-06T12:02:46.295Z,14.23
2022-12-06T12:05:23.567Z,14.40
2022-12-06T12:08:00.984Z,13.60
2022-12-06T12:10:38.769Z,13.45
2022-12-06T12:13:40.565Z,13.70
2022-12-06T12:16:19.988Z,13.40
2022-12-06T12:18:58.843Z,14.27
2022-12-06T12:21:42.326Z,15.05
2022-12-06T12:25:18.582Z,14.25
2022-12-06T12:27:49.481Z,12.88
2022-12-06T12:30:30.333Z,13.25
2022-12-06T12:33:19.364Z,13.20
2022-12-06T12:35:52.688Z,12.95
2022-12-06T12:38:30.104Z,13.73
2022-12-06T12:41:04.524Z,11.90
2022-12-06T12:43:39.250Z,12.70
2022-12-06T12:46:20.110Z,11.95
2022-12-06T12:48:53.349Z,12.82
2022-12-06T12:51:34.725Z,12.27
2022-12-06T12:54:08.131Z,13.85
2022-12-06T12:56:40.540Z,12.15
2022-12-06T12:59:19.726Z,13.48
2022-12-06T13:01:53.594Z,11.48
2022-12-06T13:04:42.821Z,12.13
2022-12-06T13:07:23.703Z,12.77
2022-12-06T13:10:07.188Z,12.63
2022-12-06T13:12:42.703Z,12.40
2022-12-06T13:15:22.390Z,12.13
2022-12-06T13:17:59.933Z,10.85
2022-12-06T13:20:33.133Z,11.73
2022-12-06T13:23:07.311Z,10.52
2022-12-06T13:25:42.043Z,12.05
2022-12-06T13:28:20.954Z,11.93
2022-12-06T13:30:59.955Z,12.25
2022-12-06T13:33:35.126Z,12.98
2022-12-06T13:36:09.675Z,12.73
2022-12-06T13:38:43.483Z,12.15
2022-12-06T13:41:36.534Z,12.23
2022-12-06T13:44:07.896Z,11.15
2022-12-06T13:46:41.626Z,11.27
2022-12-06T13:49:48.926Z,11.40
2022-12-06T13:53:04.331Z,10.35
2022-12-06T13:55:59.388Z,10.70
2022-12-06T13:58:54.530Z,11.00
2022-12-06T14:01:46.432Z,10.23
2022-12-06T14:04:39.813Z,10.88
2022-12-06T14:09:46.096Z,10.95
2022-12-06T14:12:23.021Z,10.60
2022-12-06T14:20:34.399Z,10.60
2022-12-06T14:23:05.847Z,9.45
2022-12-06T14:25:36.982Z,9.38
2022-12-06T14:28:14.994Z,9.20
2022-12-06T14:30:46.813Z,9.18
2022-12-06T14:33:27.011Z,10.38
2022-12-06T14:35:59.277Z,9.38
2022-12-06T14:38:32.942Z,9.18
2022-12-06T14:41:16.145Z,8.90
2022-12-06T14:43:52.281Z,8.38
2022-12-06T14:46:33.040Z,10.23
2022-12-06T14:49:26.310Z,8.77
2022-12-06T14:52:06.339Z,8.05
2022-12-06T14:54:49.449Z,8.63
2022-12-06T14:57:40.852Z,9.10
2022-12-06T15:00:27.433Z,9.23
2022-12-06T15:03:36.811Z,8.98
2022-12-06T15:06:26.932Z,7.53
2022-12-06T15:09:19.887Z,7.97
2022-12-06T15:12:06.344Z,6.93
2022-12-06T15:14:53.234Z,7.45
2022-12-06T15:17:27.385Z,7.00
2022-12-06T15:20:03.505Z,8.57
2022-12-06T15:22:47.079Z,7.70
2022-12-06T15:25:25.638Z,10.18
2022-12-06T15:28:03.611Z,8.25
2022-12-06T15:30:35.312Z,8.25
2022-12-06T15:33:06.722Z,8.50
2022-12-06T15:35:38.159Z,10.35
2022-12-06T15:38:12.958Z,9.73
2022-12-06T15:40:46.638Z,8.27
2022-12-06T15:43:33.471Z,8.93
2022-12-06T15:46:07.425Z,9.55
2022-12-06T15:48:38.860Z,8.57
2022-12-06T15:51:12.274Z,10.35
2022-12-06T15:53:50.133Z,10.20
2022-12-06T15:56:24.478Z,11.18
2022-12-06T15:58:56.020Z,10.43
2022-12-06T16:01:29.035Z,10.80
2022-12-06T16:04:01.174Z,9.73
2022-12-06T16:06:33.285Z,11.65
2022-12-06T16:09:07.869Z,13.30
2022-12-06T16:11:40.209Z,16.08
2022-12-06T16:14:12.303Z,14.05
2022-12-06T16:16:46.373Z,12.65
2022-12-06T16:19:18.776Z,12.38
2022-12-06T16:21:58.525Z,12.50
2022-12-06T16:24:31.192Z,12.63
2022-12-06T16:27:03.431Z,13.55
2022-12-06T16:29:35.737Z,13.45
2022-12-06T16:32:08.349Z,13.07
2022-12-06T16:34:40.736Z,13.98
2022-12-06T16:37:14.935Z,13.63
2022-12-06T16:39:50.165Z,15.50
2022-12-06T16:42:22.523Z,14.40
2022-12-06T16:44:56.746Z,17.00
2022-12-06T16:49:58.311Z,13.65
2022-12-06T16:52:29.903Z,12.43
2022-12-06T16:55:04.382Z,11.43
2022-12-06T16:57:36.503Z,9.32
2022-12-06T17:00:09.902Z,11.77
2022-12-06T17:02:42.023Z,11.10
2022-12-06T17:05:21.541Z,10.75
2022-12-06T17:07:56.830Z,12.07
2022-12-06T17:10:34.381Z,11.82
2022-12-06T17:13:06.240Z,12.00
2022-12-06T17:15:38.158Z,16.27
2022-12-06T17:18:10.023Z,13.48
2022-12-06T17:20:41.832Z,14.30
2022-12-06T17:23:13.756Z,14.75
2022-12-06T17:25:48.175Z,15.20
2022-12-06T17:28:19.717Z,15.38
2022-12-06T17:30:51.475Z,15.95
2022-12-06T17:33:22.971Z,15.73
2022-12-06T17:35:55.958Z,13.38
2022-12-06T17:38:32.451Z,13.55
2022-12-06T17:41:28.822Z,12.90
2022-12-06T17:43:57.982Z,14.95
2022-12-06T17:46:29.748Z,16.05
2022-12-06T17:49:01.989Z,16.35
2022-12-06T17:51:33.750Z,14.63
2022-12-06T17:54:09.189Z,13.50
2022-12-06T17:56:47.454Z,12.55
2022-12-06T17:59:21.409Z,11.45
2022-12-06T18:04:46.951Z,12.45
2022-12-06T18:07:19.036Z,14.52
2022-12-06T18:09:51.304Z,14.68
2022-12-06T18:12:25.909Z,12.63
2022-12-06T18:14:59.629Z,12.43
2022-12-06T18:17:31.624Z,12.15
2022-12-06T18:20:03.361Z,11.23
2022-12-06T18:22:34.992Z,9.90
2022-12-06T18:25:07.305Z,10.00
2022-12-06T18:27:42.375Z,10.00
2022-12-06T18:30:16.012Z,9.57
2022-12-06T18:32:48.753Z,10.63
2022-12-06T18:35:21.738Z,9.68
2022-12-06T18:37:53.326Z,10.07
2022-12-06T18:40:25.671Z,9.55
2022-12-06T18:43:00.308Z,10.15
2022-12-06T18:45:31.825Z,9.65
2022-12-06T18:48:06.023Z,10.38
2022-12-06T18:50:38.399Z,10.38
2022-12-06T18:53:11.445Z,12.48
2022-12-06T18:55:46.187Z,12.80
2022-12-06T18:58:22.036Z,13.25
2022-12-06T19:00:53.821Z,12.27
2022-12-06T19:03:26.188Z,9.77
2022-12-06T19:06:03.310Z,9.10
2022-12-06T19:08:37.745Z,10.00
2022-12-06T19:11:18.185Z,9.93
2022-12-06T19:13:58.315Z,9.27
2022-12-06T19:16:33.476Z,10.25
2022-12-06T19:19:12.683Z,11.48
2022-12-06T19:21:46.284Z,10.25
2022-12-06T19:24:20.548Z,10.77
2022-12-06T19:26:55.587Z,10.77
2022-12-06T19:29:30.478Z,11.88
2022-12-06T19:32:02.879Z,10.65
2022-12-06T19:34:35.313Z,10.80
2022-12-06T19:37:07.683Z,10.15
2022-12-06T19:39:39.774Z,11.00
2022-12-06T19:42:23.986Z,11.60
2022-12-06T19:45:00.347Z,10.63
2022-12-06T19:47:33.197Z,9.73
2022-12-06T19:50:05.187Z,9.77
2022-12-06T19:52:37.637Z,9.98
2022-12-06T19:55:10.344Z,10.00
2022-12-06T19:57:46.113Z,11.65
2022-12-06T20:00:24.688Z,10.10
2022-12-06T20:02:58.240Z,11.05
2022-12-06T20:05:31.821Z,10.60
2022-12-06T20:08:10.730Z,10.68
2022-12-06T20:10:45.938Z,11.00
2022-12-06T20:13:42.424Z,10.70
2022-12-06T20:16:36.241Z,11.40
2022-12-06T20:19:27.131Z,10.48
2022-12-06T20:22:08.191Z,10.75
2022-12-06T20:24:53.494Z,11.77
2022-12-06T20:27:50.016Z,11.25
2022-12-06T20:30:34.718Z,13.27
2022-12-06T20:33:18.190Z,11.25
2022-12-06T20:35:59.551Z,10.80
2022-12-06T20:38:36.371Z,11.10
2022-12-06T20:44:00.496Z,10.55
2022-12-06T20:46:39.901Z,11.77
2022-12-06T20:49:28.718Z,12.43
2022-12-06T20:52:08.370Z,12.88
2022-12-06T20:54:47.622Z,12.05
2022-12-06T20:57:25.697Z,11.60
2022-12-06T21:00:08.230Z,11.43
2022-12-06T21:02:46.908Z,12.10
2022-12-06T21:05:29.897Z,11.98
2022-12-06T21:08:08.573Z,11.15
2022-12-06T21:11:21.203Z,13.20
2022-12-06T21:13:48.633Z,12.52
2022-12-06T21:16:28.992Z,11.13
2022-12-06T21:19:04.734Z,11.15
2022-12-06T21:21:45.864Z,10.82
2022-12-06T21:24:29.284Z,10.57
2022-12-06T21:27:02.878Z,11.43
2022-12-06T21:29:36.289Z,10.30
2022-12-06T21:32:12.102Z,11.02
2022-12-06T21:34:48.133Z,10.75
2022-12-06T21:37:25.606Z,10.27
2022-12-06T21:40:02.880Z,10.05
2022-12-06T21:42:41.636Z,10.07
2022-12-06T21:45:22.088Z,10.93
2022-12-06T21:48:00.352Z,10.70
2022-12-06T21:50:36.036Z,11.25
2022-12-06T21:53:16.019Z,11.88
2022-12-06T21:55:51.503Z,11.65
2022-12-06T21:58:29.763Z,11.75
2022-12-06T22:01:13.100Z,10.95
2022-12-06T22:03:48.057Z,10.55
2022-12-06T22:06:25.471Z,10.80
2022-12-06T22:09:11.324Z,10.73
2022-12-06T22:11:47.368Z,10.77
2022-12-06T22:14:22.570Z,10.98
2022-12-06T22:16:57.610Z,10.73
2022-12-06T22:19:31.967Z,10.43
2022-12-06T22:22:07.756Z,11.35
2022-12-06T22:24:50.687Z,13.15
2022-12-06T22:27:27.256Z,12.38
2022-12-06T22:30:06.386Z,12.93
2022-12-06T22:32:41.324Z,13.80
2022-12-06T22:35:18.659Z,14.07
2022-12-06T22:37:55.922Z,14.25
2022-12-06T22:43:10.464Z,14.70
2022-12-06T22:45:47.810Z,13.57
2022-12-06T22:48:27.863Z,11.52
2022-12-06T22:51:11.644Z,12.15
2022-12-06T22:53:47.983Z,12.70
2022-12-06T22:56:27.726Z,11.35
2022-12-06T22:59:03.629Z,11.30
2022-12-06T23:01:40.765Z,11.60
2022-12-06T23:04:16.770Z,11.88
2022-12-06T23:06:51.363Z,11.57
2022-12-06T23:09:25.616Z,12.93
2022-12-06T23:12:02.388Z,12.38
2022-12-06T23:14:35.488Z,12.40
2022-12-06T23:17:08.626Z,12.50
2022-12-06T23:19:41.486Z,11.98
2022-12-06T23:22:15.820Z,12.10
2022-12-06T23:24:50.415Z,12.52
2022-12-06T23:27:33.645Z,12.80
2022-12-06T23:30:09.292Z,12.95
2022-12-06T23:32:43.662Z,13.07
2022-12-06T23:35:17.749Z,12.43
2022-12-06T23:37:50.348Z,12.00
2022-12-06T23:40:23.994Z,13.15
2022-12-06T23:43:01.179Z,12.90
2022-12-06T23:45:39.077Z,13.02
2022-12-06T23:48:13.900Z,13.50
2022-12-06T23:50:48.695Z,13.00
2022-12-06T23:53:24.197Z,12.45
2022-12-06T23:56:03.433Z,12.65
2022-12-06T23:58:42.450Z,13.07
